createdAt,value
2018-10-05T00:00:51.203Z,37.43
2018-10-05T00:03:19.957Z,35.73
2018-10-05T00:05:48.710Z,37.30
2018-10-05T00:08:17.463Z,35.15
2018-10-05T00:10:46.275Z,35.98
2018-10-05T00:13:15.082Z,38.67
2018-10-05T00:15:43.924Z,36.83
2018-10-05T00:18:12.747Z,36.98
2018-10-05T00:20:41.526Z,36.42
2018-10-05T00:23:10.438Z,35.73
2018-10-05T00:25:39.299Z,34.85
2018-10-05T00:28:08.026Z,34.33
2018-10-05T00:30:36.778Z,30.90
2018-10-05T00:33:06.245Z,30.93
2018-10-05T00:35:35.074Z,33.30
2018-10-05T00:38:03.876Z,30.72
2018-10-05T00:40:32.851Z,31.62
2018-10-05T00:43:01.587Z,30.72
2018-10-05T00:45:30.370Z,27.02
2018-10-05T00:47:59.170Z,29.80
2018-10-05T00:50:27.910Z,32.53
2018-10-05T00:52:56.724Z,29.70
2018-10-05T00:55:25.430Z,30.93
2018-10-05T00:57:54.206Z,31.93
2018-10-05T01:00:23.102Z,28.30
2018-10-05T01:02:51.914Z,30.10
2018-10-05T01:05:20.663Z,25.90
2018-10-05T01:07:49.462Z,27.30
2018-10-05T01:10:18.313Z,26.95
2018-10-05T01:12:47.098Z,25.57
2018-10-05T01:15:15.860Z,28.30
2018-10-05T01:17:44.591Z,25.68
2018-10-05T01:20:13.347Z,25.95
2018-10-05T01:22:42.266Z,26.33
2018-10-05T01:25:11.026Z,26.55
2018-10-05T01:27:39.778Z,25.63
2018-10-05T01:30:13.199Z,24.27
2018-10-05T01:32:43.613Z,24.63
2018-10-05T01:35:13.584Z,24.80
2018-10-05T01:37:42.383Z,24.87
2018-10-05T01:40:11.196Z,24.50
2018-10-05T01:42:40.006Z,21.97
2018-10-05T01:45:08.743Z,22.85
2018-10-05T01:47:37.881Z,23.75
2018-10-05T01:50:06.622Z,23.67
2018-10-05T01:52:35.410Z,24.05
2018-10-05T01:55:04.192Z,24.57
2018-10-05T01:58:07.901Z,23.87
2018-10-05T02:00:36.719Z,22.75
2018-10-05T02:03:05.495Z,20.88
2018-10-05T02:05:34.270Z,22.58
2018-10-05T02:08:03.076Z,24.18
2018-10-05T02:10:31.924Z,21.17
2018-10-05T02:13:00.656Z,22.67
2018-10-05T02:15:29.392Z,20.70
2018-10-05T02:17:58.135Z,22.73
2018-10-05T02:20:26.910Z,20.00
2018-10-05T02:22:55.674Z,20.40
2018-10-05T02:25:24.443Z,22.42
2018-10-05T02:27:53.250Z,22.22
2018-10-05T02:30:22.038Z,20.60
2018-10-05T02:32:50.821Z,20.25
2018-10-05T02:35:19.599Z,21.00
2018-10-05T02:37:48.410Z,22.82
2018-10-05T02:40:17.169Z,20.95
2018-10-05T02:42:45.967Z,21.57
2018-10-05T02:45:14.741Z,21.52
2018-10-05T02:47:43.530Z,23.50
2018-10-05T02:50:12.762Z,22.22
2018-10-05T02:52:41.482Z,20.48
2018-10-05T02:55:10.274Z,20.90
2018-10-05T02:57:39.041Z,18.70
2018-10-05T03:00:18.125Z,21.37
2018-10-05T03:02:46.890Z,21.62
2018-10-05T03:05:15.665Z,21.70
2018-10-05T03:07:44.477Z,20.97
2018-10-05T03:10:13.220Z,20.32
2018-10-05T03:12:42.007Z,19.87
2018-10-05T03:15:10.781Z,21.20
2018-10-05T03:17:39.551Z,22.37
2018-10-05T03:20:08.380Z,20.17
2018-10-05T03:22:37.181Z,18.80
2018-10-05T03:25:06.410Z,20.57
2018-10-05T03:27:35.186Z,19.17
2018-10-05T03:30:03.929Z,20.15
2018-10-05T03:32:32.742Z,19.92
2018-10-05T03:35:01.498Z,21.05
2018-10-05T03:37:30.334Z,19.50
2018-10-05T03:39:59.104Z,18.95
2018-10-05T03:42:28.010Z,21.10
2018-10-05T03:44:56.866Z,20.12
2018-10-05T03:47:25.646Z,20.30
2018-10-05T03:49:54.452Z,21.07
2018-10-05T03:52:23.266Z,21.40
2018-10-05T03:54:52.032Z,20.50
2018-10-05T03:57:20.813Z,20.35
2018-10-05T03:59:49.534Z,21.62
2018-10-05T04:02:18.354Z,18.87
2018-10-05T04:04:47.098Z,21.85
2018-10-05T04:07:15.886Z,20.97
2018-10-05T04:09:44.663Z,21.85
2018-10-05T04:12:15.718Z,21.80
2018-10-05T04:14:44.506Z,22.25
2018-10-05T04:17:13.287Z,21.60
2018-10-05T04:19:42.091Z,23.22
2018-10-05T04:22:10.876Z,21.87
2018-10-05T04:24:39.626Z,21.48
2018-10-05T04:27:08.431Z,21.50
2018-10-05T04:29:37.158Z,22.82
2018-10-05T04:32:05.930Z,20.48
2018-10-05T04:34:34.710Z,22.95
2018-10-05T04:37:03.485Z,20.35
2018-10-05T04:39:32.334Z,22.58
2018-10-05T04:42:01.063Z,22.27
2018-10-05T04:44:29.770Z,23.02
2018-10-05T04:46:58.542Z,22.25
2018-10-05T04:49:27.273Z,23.53
2018-10-05T04:51:56.034Z,22.27
2018-10-05T04:54:24.790Z,21.20
2018-10-05T04:56:53.623Z,21.33
2018-10-05T04:59:22.354Z,22.52
2018-10-05T05:01:51.094Z,21.23
2018-10-05T05:04:19.894Z,22.05
2018-10-05T05:06:48.642Z,22.60
2018-10-05T05:09:17.404Z,21.37
2018-10-05T05:11:46.190Z,22.32
2018-10-05T05:14:14.976Z,21.20
2018-10-05T05:16:44.050Z,22.48
2018-10-05T05:19:12.825Z,22.42
2018-10-05T05:21:41.611Z,22.65
2018-10-05T05:24:10.386Z,21.87
2018-10-05T05:26:39.162Z,23.95
2018-10-05T05:29:08.114Z,22.32
2018-10-05T05:31:36.872Z,21.62
2018-10-05T05:34:06.098Z,23.05
2018-10-05T05:36:34.742Z,22.07
2018-10-05T05:39:04.672Z,21.17
2018-10-05T05:41:33.423Z,21.12
2018-10-05T05:44:02.230Z,20.63
2018-10-05T05:46:31.058Z,22.17
2018-10-05T05:48:59.910Z,22.40
2018-10-05T05:51:28.649Z,20.62
2018-10-05T05:53:57.704Z,25.17
2018-10-05T05:56:26.414Z,25.00
2018-10-05T05:58:55.199Z,23.22
2018-10-05T06:01:23.938Z,24.82
2018-10-05T06:03:52.754Z,24.00
2018-10-05T06:06:21.563Z,20.20
2018-10-05T06:08:50.367Z,20.83
2018-10-05T06:11:19.139Z,22.37
2018-10-05T06:13:47.929Z,22.27
2018-10-05T06:16:16.707Z,23.35
2018-10-05T06:18:45.516Z,23.30
2018-10-05T06:21:14.311Z,22.37
2018-10-05T06:23:43.138Z,26.75
2018-10-05T06:26:12.148Z,21.82
2018-10-05T06:28:40.966Z,25.33
2018-10-05T06:31:09.906Z,24.27
2018-10-05T06:33:38.694Z,23.40
2018-10-05T06:36:07.507Z,22.83
2018-10-05T06:38:36.425Z,22.10
2018-10-05T06:41:05.363Z,19.23
2018-10-05T06:43:34.186Z,19.17
2018-10-05T06:46:02.969Z,19.63
2018-10-05T06:48:31.775Z,23.87
2018-10-05T06:51:00.567Z,18.67
2018-10-05T06:53:29.374Z,18.90
2018-10-05T06:55:58.204Z,19.98
2018-10-05T06:58:26.974Z,17.32
2018-10-05T07:00:55.764Z,16.65
2018-10-05T07:03:24.838Z,17.60
2018-10-05T07:05:54.107Z,21.15
2018-10-05T07:08:22.860Z,19.82
2018-10-05T07:10:51.603Z,19.92
2018-10-05T07:13:20.398Z,19.60
2018-10-05T07:15:49.336Z,20.35
2018-10-05T07:18:18.097Z,21.12
2018-10-05T07:20:46.866Z,21.57
2018-10-05T07:23:15.606Z,20.88
2018-10-05T07:25:44.364Z,24.00
2018-10-05T07:28:13.154Z,23.90
2018-10-05T07:30:41.882Z,24.27
2018-10-05T07:33:10.666Z,23.35
2018-10-05T07:35:39.477Z,20.52
2018-10-05T07:38:08.289Z,18.95
2018-10-05T07:40:37.194Z,20.55
2018-10-05T07:43:06.196Z,18.92
2018-10-05T07:45:34.958Z,19.23
2018-10-05T07:48:03.798Z,19.95
2018-10-05T07:50:32.595Z,18.82
2018-10-05T07:53:01.546Z,19.32
2018-10-05T07:55:30.358Z,20.97
2018-10-05T07:57:59.206Z,20.85
2018-10-05T08:00:27.991Z,19.87
2018-10-05T08:02:57.209Z,18.73
2018-10-05T08:05:25.987Z,18.70
2018-10-05T08:07:54.762Z,17.67
2018-10-05T08:10:23.553Z,18.15
2018-10-05T08:12:52.340Z,18.48
2018-10-05T08:15:21.098Z,19.90
2018-10-05T08:17:50.207Z,20.10
2018-10-05T08:20:18.966Z,19.20
2018-10-05T08:22:47.718Z,19.50
2018-10-05T08:25:16.489Z,19.67
2018-10-05T08:27:45.282Z,19.57
2018-10-05T08:30:13.993Z,17.95
2018-10-05T08:32:42.794Z,16.82
2018-10-05T08:35:11.628Z,18.20
2018-10-05T08:37:40.422Z,17.30
2018-10-05T08:40:09.782Z,18.55
2018-10-05T08:42:38.548Z,18.50
2018-10-05T08:45:07.621Z,18.32
2018-10-05T08:47:36.358Z,18.40
2018-10-05T08:50:05.112Z,19.60
2018-10-05T08:52:33.995Z,18.52
2018-10-05T08:55:02.818Z,17.00
2018-10-05T08:57:31.973Z,20.27
2018-10-05T09:00:00.767Z,17.48
2018-10-05T09:02:29.518Z,17.85
2018-10-05T09:04:58.286Z,17.82
2018-10-05T09:07:27.074Z,15.83
2018-10-05T09:09:55.823Z,17.75
2018-10-05T09:12:24.570Z,18.55
2018-10-05T09:14:53.377Z,15.60
2018-10-05T09:17:22.163Z,16.35
2018-10-05T09:19:50.911Z,16.27
2018-10-05T09:22:19.695Z,14.73
2018-10-05T09:24:48.529Z,15.65
2018-10-05T09:27:17.323Z,13.48
2018-10-05T09:29:46.146Z,13.32
2018-10-05T09:32:14.916Z,13.93
2018-10-05T09:34:43.690Z,15.18
2018-10-05T09:37:12.555Z,13.50
2018-10-05T09:39:41.308Z,13.48
2018-10-05T09:42:10.154Z,13.35
2018-10-05T09:44:38.942Z,14.18
2018-10-05T09:47:07.749Z,13.53
2018-10-05T09:49:36.522Z,13.62
2018-10-05T09:52:05.854Z,12.50
2018-10-05T09:54:34.613Z,12.03
2018-10-05T09:57:03.678Z,11.85
2018-10-05T09:59:32.516Z,11.50
2018-10-05T10:02:06.833Z,12.50
2018-10-05T10:04:35.613Z,11.20
2018-10-05T10:07:04.379Z,12.20
2018-10-05T10:09:33.175Z,12.03
2018-10-05T10:12:01.923Z,11.88
2018-10-05T10:14:30.750Z,11.78
2018-10-05T10:16:59.544Z,10.95
2018-10-05T10:19:28.280Z,10.95
2018-10-05T10:21:57.101Z,10.00
2018-10-05T10:24:25.850Z,11.68
2018-10-05T10:26:54.602Z,12.47
2018-10-05T10:29:23.443Z,10.13
2018-10-05T10:31:52.137Z,10.82
2018-10-05T10:34:20.942Z,10.55
2018-10-05T10:36:49.849Z,10.65
2018-10-05T10:39:18.542Z,10.20
2018-10-05T10:41:47.663Z,10.27
2018-10-05T10:44:16.518Z,8.60
2018-10-05T10:46:45.278Z,8.23
2018-10-05T10:49:14.099Z,7.45
2018-10-05T10:51:42.861Z,7.75
2018-10-05T10:54:11.774Z,8.03
2018-10-05T10:56:40.426Z,8.73
2018-10-05T10:59:09.214Z,7.58
2018-10-05T11:01:38.023Z,8.58
2018-10-05T11:04:06.927Z,8.23
2018-10-05T11:06:35.650Z,8.10
2018-10-05T11:09:06.099Z,8.30
2018-10-05T11:11:34.902Z,8.33
2018-10-05T11:14:03.642Z,7.30
2018-10-05T11:16:32.439Z,7.90
2018-10-05T11:19:01.190Z,8.38
2018-10-05T11:21:30.072Z,7.22
2018-10-05T11:23:58.823Z,7.55
2018-10-05T11:26:27.567Z,9.30
2018-10-05T11:28:56.343Z,7.95
2018-10-05T11:31:25.118Z,8.88
2018-10-05T11:33:53.907Z,8.88
2018-10-05T11:36:22.663Z,9.13
2018-10-05T11:38:51.483Z,10.20
2018-10-05T11:41:20.235Z,9.50
2018-10-05T11:43:48.993Z,8.58
2018-10-05T11:46:17.887Z,9.18
2018-10-05T11:48:46.625Z,9.68
2018-10-05T11:51:15.366Z,8.98
2018-10-05T11:53:44.141Z,8.10
2018-10-05T11:56:12.997Z,10.30
2018-10-05T11:58:41.786Z,9.38
2018-10-05T12:01:10.550Z,10.45
2018-10-05T12:03:39.294Z,10.18
2018-10-05T12:06:08.096Z,8.75
2018-10-05T12:08:36.860Z,9.03
2018-10-05T12:11:05.602Z,9.30
2018-10-05T12:13:34.744Z,9.13
2018-10-05T12:16:03.470Z,9.00
2018-10-05T12:18:32.239Z,9.33
2018-10-05T12:21:01.075Z,8.93
2018-10-05T12:23:29.862Z,8.58
2018-10-05T12:25:58.627Z,9.80
2018-10-05T12:28:27.435Z,8.33
2018-10-05T12:30:56.246Z,9.33
2018-10-05T12:33:25.073Z,8.03
2018-10-05T12:35:53.890Z,7.50
2018-10-05T12:38:23.142Z,6.90
2018-10-05T12:40:52.522Z,8.17
2018-10-05T12:43:21.330Z,8.43
2018-10-05T12:45:50.181Z,7.55
2018-10-05T12:48:20.858Z,8.53
2018-10-05T12:50:49.708Z,8.38
2018-10-05T12:53:18.435Z,7.58
2018-10-05T12:55:47.211Z,22.77
2018-10-05T12:58:16.040Z,8.35
2018-10-05T13:00:44.707Z,7.00
2018-10-05T13:03:13.532Z,8.38
2018-10-05T13:05:42.280Z,7.70
2018-10-05T13:08:11.038Z,6.85
2018-10-05T13:10:40.322Z,6.92
2018-10-05T13:13:09.201Z,6.80
2018-10-05T13:15:37.842Z,6.55
2018-10-05T13:18:12.281Z,7.33
2018-10-05T13:20:41.105Z,6.70
2018-10-05T13:23:09.906Z,6.10
2018-10-05T13:25:38.703Z,7.00
2018-10-05T13:28:07.498Z,7.42
2018-10-05T13:30:36.275Z,7.00
2018-10-05T13:33:05.094Z,6.30
2018-10-05T13:35:33.854Z,6.20
2018-10-05T13:38:03.226Z,6.67
2018-10-05T13:40:31.982Z,6.55
2018-10-05T13:43:00.802Z,7.30
2018-10-05T13:45:29.563Z,6.85
2018-10-05T13:47:58.329Z,6.58
2018-10-05T13:50:27.080Z,6.08
2018-10-05T13:52:55.835Z,6.85
2018-10-05T13:55:24.662Z,6.75
2018-10-05T13:57:53.467Z,6.17
2018-10-05T14:00:22.207Z,6.37
2018-10-05T14:02:51.036Z,6.83
2018-10-05T14:05:19.758Z,5.97
2018-10-05T14:07:48.503Z,6.37
2018-10-05T14:10:17.259Z,5.87
2018-10-05T14:12:46.042Z,6.78
2018-10-05T14:15:14.803Z,7.22
2018-10-05T14:17:43.575Z,7.27
2018-10-05T14:20:12.343Z,6.85
2018-10-05T14:22:41.157Z,6.25
2018-10-05T14:25:09.925Z,7.37
2018-10-05T14:27:38.714Z,7.85
2018-10-05T14:30:07.527Z,7.80
2018-10-05T14:32:36.334Z,7.70
2018-10-05T14:35:05.097Z,8.10
2018-10-05T14:37:33.848Z,9.00
2018-10-05T14:40:02.598Z,8.83
2018-10-05T14:42:31.502Z,7.92
2018-10-05T14:45:00.271Z,7.72
2018-10-05T14:47:29.054Z,8.05
2018-10-05T14:49:57.845Z,7.20
2018-10-05T14:52:27.018Z,6.43
2018-10-05T14:54:56.400Z,5.47
2018-10-05T14:57:25.275Z,5.30
2018-10-05T14:59:54.310Z,4.75
2018-10-05T15:02:23.095Z,5.53
2018-10-05T15:04:51.869Z,4.78
2018-10-05T15:07:20.695Z,5.95
2018-10-05T15:09:49.440Z,5.70
2018-10-05T15:12:18.271Z,5.50
2018-10-05T15:14:47.079Z,6.37
2018-10-05T15:17:16.174Z,4.95
2018-10-05T15:19:45.547Z,4.58
2018-10-05T15:22:14.335Z,4.30
2018-10-05T15:24:43.146Z,5.00
2018-10-05T15:27:11.931Z,4.65
2018-10-05T15:29:40.782Z,4.92
2018-10-05T15:32:09.535Z,4.45
2018-10-05T15:34:38.315Z,5.30
2018-10-05T15:37:07.117Z,6.25
2018-10-05T15:39:35.937Z,5.00
2018-10-05T15:42:04.692Z,5.78
2018-10-05T15:44:33.462Z,5.37
2018-10-05T15:47:03.475Z,5.37
2018-10-05T15:49:33.151Z,5.25
2018-10-05T15:52:02.367Z,5.75
2018-10-05T15:54:31.237Z,5.85
2018-10-05T15:57:00.035Z,4.70
2018-10-05T15:59:29.324Z,5.25
2018-10-05T16:01:58.235Z,5.35
2018-10-05T16:04:27.394Z,4.58
2018-10-05T16:06:56.242Z,3.75
2018-10-05T16:09:25.058Z,4.30
2018-10-05T16:11:54.140Z,5.03
2018-10-05T16:14:22.892Z,5.65
2018-10-05T16:16:51.656Z,5.00
2018-10-05T16:19:20.563Z,5.30
2018-10-05T16:21:49.351Z,4.78
2018-10-05T16:24:29.040Z,5.87
2018-10-05T16:26:57.834Z,5.92
2018-10-05T16:29:26.656Z,5.70
2018-10-05T16:31:56.356Z,6.60
2018-10-05T16:34:25.207Z,6.60
2018-10-05T16:36:53.994Z,6.83
2018-10-05T16:39:22.771Z,6.78
2018-10-05T16:41:51.603Z,6.50
2018-10-05T16:44:20.387Z,6.62
2018-10-05T16:46:49.163Z,6.90
2018-10-05T16:49:17.943Z,7.53
2018-10-05T16:51:46.686Z,6.47
2018-10-05T16:54:15.475Z,6.58
2018-10-05T16:56:44.275Z,6.90
2018-10-05T16:59:13.372Z,6.62
2018-10-05T17:01:42.210Z,8.28
2018-10-05T17:04:11.014Z,8.23
2018-10-05T17:06:39.782Z,9.73
2018-10-05T17:09:09.770Z,10.30
2018-10-05T17:11:40.006Z,11.07
2018-10-05T17:14:09.369Z,10.53
2018-10-05T17:16:38.142Z,10.48
2018-10-05T17:19:07.185Z,10.85
2018-10-05T17:21:36.012Z,12.28
2018-10-05T17:24:04.763Z,13.43
2018-10-05T17:26:33.935Z,13.00
2018-10-05T17:29:02.737Z,12.80
2018-10-05T17:31:31.511Z,12.68
2018-10-05T17:34:00.293Z,13.22
2018-10-05T17:36:29.040Z,13.72
2018-10-05T17:38:57.946Z,12.25
2018-10-05T17:41:26.790Z,12.90
2018-10-05T17:43:55.586Z,13.45
2018-10-05T17:46:24.367Z,13.15
2018-10-05T17:48:53.142Z,13.37
2018-10-05T17:51:21.874Z,15.15
2018-10-05T17:53:50.690Z,14.38
2018-10-05T17:56:19.470Z,13.45
2018-10-05T17:58:48.223Z,14.07
2018-10-05T18:01:17.007Z,14.20
2018-10-05T18:03:45.753Z,14.58
2018-10-05T18:06:14.519Z,15.83
2018-10-05T18:08:43.274Z,15.03
2018-10-05T18:11:12.011Z,15.55
2018-10-05T18:13:40.907Z,15.53
2018-10-05T18:16:09.696Z,17.00
2018-10-05T18:18:38.470Z,17.20
2018-10-05T18:21:07.331Z,16.77
2018-10-05T18:23:36.102Z,16.87
2018-10-05T18:26:05.041Z,17.32
2018-10-05T18:28:34.030Z,16.95
2018-10-05T18:31:02.810Z,17.10
2018-10-05T18:33:31.591Z,18.23
2018-10-05T18:36:00.410Z,17.07
2018-10-05T18:38:29.210Z,18.37
2018-10-05T18:40:58.022Z,17.87
2018-10-05T18:43:26.755Z,17.92
2018-10-05T18:45:55.518Z,18.62
2018-10-05T18:48:24.314Z,18.15
2018-10-05T18:50:53.173Z,20.08
2018-10-05T18:53:21.971Z,17.75
2018-10-05T18:55:51.204Z,16.17
2018-10-05T18:59:26.731Z,15.65
2018-10-05T19:01:55.495Z,18.15
2018-10-05T19:04:24.278Z,17.40
2018-10-05T19:06:53.052Z,16.02
2018-10-05T19:09:21.795Z,16.77
2018-10-05T19:11:50.953Z,15.93
2018-10-05T19:14:19.715Z,16.50
2018-10-05T19:16:48.475Z,16.87
2018-10-05T19:19:17.229Z,16.55
2018-10-05T19:21:46.077Z,16.43
2018-10-05T19:24:14.882Z,15.00
2018-10-05T19:26:43.658Z,15.90
2018-10-05T19:29:12.427Z,16.75
2018-10-05T19:31:41.216Z,16.82
2018-10-05T19:34:10.028Z,15.53
2018-10-05T19:36:38.883Z,16.80
2018-10-05T19:39:08.828Z,17.50
2018-10-05T19:41:38.351Z,17.27
2018-10-05T19:44:07.754Z,17.47
2018-10-05T19:46:37.215Z,16.35
2018-10-05T19:49:06.046Z,16.60
2018-10-05T19:51:35.688Z,17.00
2018-10-05T19:54:04.423Z,18.90
2018-10-05T19:56:33.276Z,17.30
2018-10-05T19:59:02.023Z,17.90
2018-10-05T20:01:30.752Z,16.77
2018-10-05T20:03:59.535Z,16.95
2018-10-05T20:06:28.318Z,19.60
2018-10-05T20:08:57.151Z,17.65
2018-10-05T20:11:25.982Z,18.82
2018-10-05T20:13:54.753Z,19.15
2018-10-05T20:16:23.794Z,16.90
2018-10-05T20:18:52.550Z,18.30
2018-10-05T20:21:21.319Z,18.70
2018-10-05T20:23:50.108Z,20.48
2018-10-05T20:26:19.030Z,19.42
2018-10-05T20:28:47.786Z,19.40
2018-10-05T20:31:16.640Z,20.02
2018-10-05T20:33:46.017Z,17.48
2018-10-05T20:36:14.977Z,19.35
2018-10-05T20:38:43.618Z,21.55
2018-10-05T20:41:12.354Z,19.73
2018-10-05T20:43:41.106Z,18.85
2018-10-05T20:46:09.850Z,18.75
2018-10-05T20:48:38.647Z,18.23
2018-10-05T20:51:07.383Z,19.45
2018-10-05T20:53:36.127Z,19.20
2018-10-05T20:56:04.918Z,19.42
2018-10-05T20:58:33.735Z,18.90
2018-10-05T21:01:02.522Z,19.40
2018-10-05T21:03:31.300Z,16.20
2018-10-05T21:06:00.103Z,17.73
2018-10-05T21:08:28.858Z,16.87
2018-10-05T21:13:32.838Z,19.85
2018-10-05T21:16:01.588Z,20.33
2018-10-05T21:18:31.366Z,17.32
2018-10-05T21:21:00.126Z,18.98
2018-10-05T21:23:28.975Z,18.60
2018-10-05T21:25:57.747Z,17.92
2018-10-05T21:28:26.574Z,18.27
2018-10-05T21:30:55.362Z,17.82
2018-10-05T21:33:24.373Z,16.27
2018-10-05T21:35:53.094Z,16.65
2018-10-05T21:38:21.851Z,17.85
2018-10-05T21:40:51.646Z,16.57
2018-10-05T21:43:20.414Z,17.40
2018-10-05T21:45:49.206Z,17.40
2018-10-05T21:48:17.972Z,17.30
2018-10-05T21:50:46.931Z,18.45
2018-10-05T21:53:15.678Z,16.67
2018-10-05T21:55:44.491Z,15.80
2018-10-05T21:58:13.249Z,16.48
2018-10-05T22:00:42.596Z,13.60
2018-10-05T22:03:11.918Z,12.33
2018-10-05T22:05:40.730Z,10.45
2018-10-05T22:08:09.523Z,10.10
2018-10-05T22:10:38.260Z,10.38
2018-10-05T22:13:07.006Z,10.93
2018-10-05T22:15:35.810Z,12.03
2018-10-05T22:18:04.593Z,10.73
2018-10-05T22:20:33.395Z,9.30
2018-10-05T22:23:02.151Z,8.50
2018-10-05T22:25:30.914Z,7.28
2018-10-05T22:27:59.674Z,7.42
2018-10-05T22:30:28.440Z,8.13
2018-10-05T22:32:57.206Z,8.30
2018-10-05T22:35:26.526Z,10.50
2018-10-05T22:37:55.275Z,11.33
2018-10-05T22:40:24.085Z,11.73
2018-10-05T22:42:52.853Z,12.33
2018-10-05T22:45:21.649Z,12.30
2018-10-05T22:47:50.362Z,12.95
2018-10-05T22:50:19.183Z,14.68
2018-10-05T22:52:48.225Z,14.43
2018-10-05T22:55:16.955Z,16.45
2018-10-05T22:57:45.730Z,15.53
2018-10-05T23:00:14.519Z,16.53
2018-10-05T23:02:43.319Z,15.72
2018-10-05T23:05:12.050Z,13.10
2018-10-05T23:07:40.818Z,14.00
2018-10-05T23:10:09.666Z,13.03
2018-10-05T23:12:38.495Z,11.08
2018-10-05T23:15:07.794Z,9.10
2018-10-05T23:17:36.590Z,7.97
2018-10-05T23:20:05.410Z,8.65
2018-10-05T23:22:34.185Z,8.55
2018-10-05T23:25:02.965Z,8.50
2018-10-05T23:27:31.770Z,8.40
2018-10-05T23:30:00.576Z,9.63
2018-10-05T23:32:29.342Z,9.98
2018-10-05T23:34:58.150Z,9.03
2018-10-05T23:37:26.934Z,10.78
2018-10-05T23:39:55.694Z,11.15
2018-10-05T23:42:24.413Z,11.78
2018-10-05T23:44:53.162Z,11.63
2018-10-05T23:47:21.949Z,15.08
2018-10-05T23:49:50.790Z,15.50
2018-10-05T23:52:44.658Z,17.07
2018-10-05T23:55:13.506Z,19.10
2018-10-05T23:57:42.884Z,22.30
